sensor_id;sensor_type;location;lat;lon;timestamp;P1;durP1;ratioP1;P2;durP2;ratioP2
51525;SDS011;37611;51.794;21.590;2024-01-15T00:02:59;14.90;;;9.90;;
51525;SDS011;37611;51.794;21.590;2024-01-15T00:07:01;15.40;;;10.30;;
51525;SDS011;37611;51.794;21.590;2024-01-15T00:11:03;14.10;;;9.30;;
51525;SDS011;37611;51.794;21.590;2024-01-15T00:15:05;15.00;;;9.80;;
51525;SDS011;37611;51.794;21.590;2024-01-15T00:19:07;13.90;;;9.80;;
51525;SDS011;37611;51.794;21.590;2024-01-15T00:23:09;15.10;;;10.30;;
51525;SDS011;37611;51.794;21.590;2024-01-15T00:27:11;13.00;;;9.70;;
51525;SDS011;37611;51.794;21.590;2024-01-15T00:31:13;13.00;;;10.10;;
51525;SDS011;37611;51.794;21.590;2024-01-15T00:35:18;14.20;;;10.20;;
51525;SDS011;37611;51.794;21.590;2024-01-15T00:39:20;13.60;;;8.90;;
51525;SDS011;37611;51.794;21.590;2024-01-15T00:43:21;12.70;;;10.50;;
51525;SDS011;37611;51.794;21.590;2024-01-15T00:47:23;13.50;;;9.40;;
51525;SDS011;37611;51.794;21.590;2024-01-15T00:51:25;11.60;;;9.00;;
51525;SDS011;37611;51.794;21.590;2024-01-15T00:55:28;14.60;;;10.00;;
51525;SDS011;37611;51.794;21.590;2024-01-15T00:59:33;16.00;;;10.50;;
51525;SDS011;37611;51.794;21.590;2024-01-15T01:03:39;16.10;;;11.50;;
51525;SDS011;37611;51.794;21.590;2024-01-15T01:07:41;14.80;;;10.60;;
51525;SDS011;37611;51.794;21.590;2024-01-15T01:11:43;17.70;;;11.60;;
51525;SDS011;37611;51.794;21.590;2024-01-15T01:15:45;18.40;;;13.10;;
51525;SDS011;37611;51.794;21.590;2024-01-15T01:19:46;13.60;;;11.00;;
51525;SDS011;37611;51.794;21.590;2024-01-15T01:23:48;13.30;;;11.00;;
51525;SDS011;37611;51.794;21.590;2024-01-15T01:27:50;17.30;;;11.00;;
51525;SDS011;37611;51.794;21.590;2024-01-15T01:31:52;16.50;;;11.10;;
51525;SDS011;37611;51.794;21.590;2024-01-15T01:35:53;16.40;;;11.50;;
51525;SDS011;37611;51.794;21.590;2024-01-15T01:39:55;16.50;;;12.30;;
51525;SDS011;37611;51.794;21.590;2024-01-15T01:43:57;18.30;;;12.60;;
51525;SDS011;37611;51.794;21.590;2024-01-15T01:47:59;17.30;;;11.50;;
51525;SDS011;37611;51.794;21.590;2024-01-15T01:52:02;19.00;;;13.80;;
51525;SDS011;37611;51.794;21.590;2024-01-15T01:56:06;17.70;;;11.90;;
51525;SDS011;37611;51.794;21.590;2024-01-15T02:00:09;18.40;;;11.30;;
51525;SDS011;37611;51.794;21.590;2024-01-15T02:04:12;17.10;;;11.70;;
51525;SDS011;37611;51.794;21.590;2024-01-15T02:08:14;18.10;;;11.80;;
51525;SDS011;37611;51.794;21.590;2024-01-15T02:12:16;16.80;;;12.20;;
51525;SDS011;37611;51.794;21.590;2024-01-15T02:16:18;16.20;;;11.70;;
51525;SDS011;37611;51.794;21.590;2024-01-15T02:20:20;15.40;;;10.80;;
51525;SDS011;37611;51.794;21.590;2024-01-15T02:24:22;13.90;;;10.60;;
51525;SDS011;37611;51.794;21.590;2024-01-15T02:28:24;18.20;;;12.40;;
51525;SDS011;37611;51.794;21.590;2024-01-15T02:32:26;17.70;;;13.20;;
51525;SDS011;37611;51.794;21.590;2024-01-15T02:36:27;15.60;;;12.10;;
51525;SDS011;37611;51.794;21.590;2024-01-15T02:40:29;16.80;;;11.80;;
51525;SDS011;37611;51.794;21.590;2024-01-15T02:44:31;15.40;;;10.70;;
51525;SDS011;37611;51.794;21.590;2024-01-15T02:48:33;15.90;;;11.50;;
51525;SDS011;37611;51.794;21.590;2024-01-15T02:52:36;17.20;;;11.80;;
51525;SDS011;37611;51.794;21.590;2024-01-15T02:56:38;17.80;;;12.40;;
51525;SDS011;37611;51.794;21.590;2024-01-15T03:00:40;19.00;;;11.70;;
51525;SDS011;37611;51.794;21.590;2024-01-15T03:04:45;18.50;;;12.00;;
51525;SDS011;37611;51.794;21.590;2024-01-15T03:08:47;19.20;;;12.60;;
51525;SDS011;37611;51.794;21.590;2024-01-15T03:12:49;17.40;;;12.50;;
51525;SDS011;37611;51.794;21.590;2024-01-15T03:16:51;17.90;;;12.30;;
51525;SDS011;37611;51.794;21.590;2024-01-15T03:20:53;18.90;;;11.30;;
51525;SDS011;37611;51.794;21.590;2024-01-15T03:24:55;17.00;;;11.80;;
51525;SDS011;37611;51.794;21.590;2024-01-15T03:28:58;26.00;;;16.20;;
51525;SDS011;37611;51.794;21.590;2024-01-15T03:33:00;17.80;;;12.50;;
51525;SDS011;37611;51.794;21.590;2024-01-15T03:37:02;15.60;;;11.50;;
51525;SDS011;37611;51.794;21.590;2024-01-15T03:41:05;17.00;;;11.00;;
51525;SDS011;37611;51.794;21.590;2024-01-15T03:45:06;19.00;;;12.00;;
51525;SDS011;37611;51.794;21.590;2024-01-15T03:49:08;17.00;;;11.40;;
51525;SDS011;37611;51.794;21.590;2024-01-15T03:53:10;16.40;;;10.80;;
51525;SDS011;37611;51.794;21.590;2024-01-15T03:57:12;18.60;;;11.60;;
51525;SDS011;37611;51.794;21.590;2024-01-15T04:01:14;17.30;;;11.90;;
51525;SDS011;37611;51.794;21.590;2024-01-15T04:05:16;16.50;;;11.90;;
51525;SDS011;37611;51.794;21.590;2024-01-15T04:09:17;15.90;;;12.00;;
51525;SDS011;37611;51.794;21.590;2024-01-15T04:13:19;17.30;;;12.00;;
51525;SDS011;37611;51.794;21.590;2024-01-15T04:17:21;19.90;;;12.50;;
51525;SDS011;37611;51.794;21.590;2024-01-15T04:21:23;15.60;;;11.40;;
51525;SDS011;37611;51.794;21.590;2024-01-15T04:25:25;18.60;;;11.90;;
51525;SDS011;37611;51.794;21.590;2024-01-15T04:29:27;18.90;;;12.10;;
51525;SDS011;37611;51.794;21.590;2024-01-15T04:33:28;16.30;;;10.90;;
51525;SDS011;37611;51.794;21.590;2024-01-15T04:37:30;16.50;;;12.00;;
51525;SDS011;37611;51.794;21.590;2024-01-15T04:41:32;15.60;;;9.80;;
51525;SDS011;37611;51.794;21.590;2024-01-15T04:45:34;17.90;;;11.00;;
51525;SDS011;37611;51.794;21.590;2024-01-15T04:49:36;17.10;;;11.70;;
51525;SDS011;37611;51.794;21.590;2024-01-15T04:53:38;16.00;;;11.30;;
51525;SDS011;37611;51.794;21.590;2024-01-15T04:57:40;19.50;;;10.70;;
51525;SDS011;37611;51.794;21.590;2024-01-15T05:01:42;16.90;;;11.00;;
51525;SDS011;37611;51.794;21.590;2024-01-15T05:05:43;14.80;;;9.30;;
51525;SDS011;37611;51.794;21.590;2024-01-15T05:09:45;16.10;;;9.50;;
51525;SDS011;37611;51.794;21.590;2024-01-15T05:13:47;15.10;;;10.40;;
51525;SDS011;37611;51.794;21.590;2024-01-15T05:17:49;21.60;;;9.30;;
51525;SDS011;37611;51.794;21.590;2024-01-15T05:21:51;16.00;;;11.20;;
51525;SDS011;37611;51.794;21.590;2024-01-15T05:25:52;17.90;;;10.60;;
51525;SDS011;37611;51.794;21.590;2024-01-15T05:29:54;15.40;;;11.60;;
51525;SDS011;37611;51.794;21.590;2024-01-15T05:33:56;16.90;;;11.80;;
51525;SDS011;37611;51.794;21.590;2024-01-15T05:37:58;15.00;;;11.10;;
51525;SDS011;37611;51.794;21.590;2024-01-15T05:42:00;17.40;;;11.60;;
51525;SDS011;37611;51.794;21.590;2024-01-15T05:46:02;18.30;;;10.70;;
51525;SDS011;37611;51.794;21.590;2024-01-15T05:50:04;17.50;;;11.50;;
51525;SDS011;37611;51.794;21.590;2024-01-15T05:54:08;15.30;;;10.60;;
51525;SDS011;37611;51.794;21.590;2024-01-15T05:58:09;16.20;;;11.10;;
51525;SDS011;37611;51.794;21.590;2024-01-15T06:02:12;17.10;;;11.90;;
51525;SDS011;37611;51.794;21.590;2024-01-15T06:06:14;14.30;;;11.10;;
51525;SDS011;37611;51.794;21.590;2024-01-15T06:10:15;15.70;;;11.00;;
51525;SDS011;37611;51.794;21.590;2024-01-15T06:14:17;16.10;;;11.20;;
51525;SDS011;37611;51.794;21.590;2024-01-15T06:18:19;11.90;;;9.70;;
51525;SDS011;37611;51.794;21.590;2024-01-15T06:22:21;14.00;;;10.30;;
51525;SDS011;37611;51.794;21.590;2024-01-15T06:26:23;17.50;;;10.50;;
51525;SDS011;37611;51.794;21.590;2024-01-15T06:30:25;13.00;;;9.70;;
51525;SDS011;37611;51.794;21.590;2024-01-15T06:34:26;14.70;;;11.10;;
51525;SDS011;37611;51.794;21.590;2024-01-15T06:38:28;16.60;;;11.00;;
51525;SDS011;37611;51.794;21.590;2024-01-15T06:42:30;15.50;;;11.20;;
51525;SDS011;37611;51.794;21.590;2024-01-15T06:46:31;14.60;;;10.50;;
51525;SDS011;37611;51.794;21.590;2024-01-15T06:50:33;15.50;;;11.20;;
51525;SDS011;37611;51.794;21.590;2024-01-15T06:54:35;14.20;;;11.10;;
51525;SDS011;37611;51.794;21.590;2024-01-15T06:58:37;14.70;;;10.80;;
51525;SDS011;37611;51.794;21.590;2024-01-15T07:02:39;17.60;;;13.30;;
51525;SDS011;37611;51.794;21.590;2024-01-15T07:06:41;16.60;;;11.60;;
51525;SDS011;37611;51.794;21.590;2024-01-15T07:10:43;18.20;;;12.40;;
51525;SDS011;37611;51.794;21.590;2024-01-15T07:14:45;13.30;;;9.90;;
51525;SDS011;37611;51.794;21.590;2024-01-15T07:18:46;19.70;;;14.60;;
51525;SDS011;37611;51.794;21.590;2024-01-15T07:22:48;23.40;;;16.10;;
51525;SDS011;37611;51.794;21.590;2024-01-15T07:26:50;20.60;;;15.50;;
51525;SDS011;37611;51.794;21.590;2024-01-15T07:30:52;24.90;;;15.90;;
51525;SDS011;37611;51.794;21.590;2024-01-15T07:34:53;20.00;;;15.60;;
51525;SDS011;37611;51.794;21.590;2024-01-15T07:38:55;21.90;;;14.00;;
51525;SDS011;37611;51.794;21.590;2024-01-15T07:42:57;22.10;;;16.40;;
51525;SDS011;37611;51.794;21.590;2024-01-15T07:46:59;17.40;;;14.30;;
51525;SDS011;37611;51.794;21.590;2024-01-15T07:51:01;19.60;;;13.70;;
51525;SDS011;37611;51.794;21.590;2024-01-15T07:55:03;17.00;;;12.80;;
51525;SDS011;37611;51.794;21.590;2024-01-15T07:59:06;17.50;;;11.70;;
51525;SDS011;37611;51.794;21.590;2024-01-15T08:03:08;13.10;;;10.20;;
51525;SDS011;37611;51.794;21.590;2024-01-15T08:07:10;13.90;;;10.60;;
51525;SDS011;37611;51.794;21.590;2024-01-15T08:11:12;14.10;;;9.70;;
51525;SDS011;37611;51.794;21.590;2024-01-15T08:15:14;14.90;;;10.70;;
51525;SDS011;37611;51.794;21.590;2024-01-15T08:19:15;18.30;;;11.80;;
51525;SDS011;37611;51.794;21.590;2024-01-15T08:23:17;16.80;;;11.90;;
51525;SDS011;37611;51.794;21.590;2024-01-15T08:27:19;17.70;;;12.20;;
51525;SDS011;37611;51.794;21.590;2024-01-15T08:31:21;16.80;;;12.90;;
51525;SDS011;37611;51.794;21.590;2024-01-15T08:35:23;19.40;;;12.70;;
51525;SDS011;37611;51.794;21.590;2024-01-15T08:39:26;21.20;;;12.90;;
51525;SDS011;37611;51.794;21.590;2024-01-15T08:43:28;17.90;;;11.10;;
51525;SDS011;37611;51.794;21.590;2024-01-15T08:47:31;24.90;;;14.00;;
51525;SDS011;37611;51.794;21.590;2024-01-15T08:51:32;18.40;;;12.70;;
51525;SDS011;37611;51.794;21.590;2024-01-15T08:55:34;14.70;;;10.90;;
51525;SDS011;37611;51.794;21.590;2024-01-15T08:59:36;16.40;;;12.70;;
51525;SDS011;37611;51.794;21.590;2024-01-15T09:03:40;19.50;;;14.00;;
51525;SDS011;37611;51.794;21.590;2024-01-15T09:07:45;21.50;;;13.50;;
51525;SDS011;37611;51.794;21.590;2024-01-15T09:11:47;15.20;;;10.70;;
51525;SDS011;37611;51.794;21.590;2024-01-15T09:15:49;22.20;;;15.00;;
51525;SDS011;37611;51.794;21.590;2024-01-15T09:19:51;19.50;;;14.20;;
51525;SDS011;37611;51.794;21.590;2024-01-15T09:23:53;18.60;;;11.60;;
51525;SDS011;37611;51.794;21.590;2024-01-15T09:27:55;25.80;;;15.90;;
51525;SDS011;37611;51.794;21.590;2024-01-15T09:31:56;18.90;;;11.70;;
51525;SDS011;37611;51.794;21.590;2024-01-15T09:36:01;13.90;;;10.80;;
51525;SDS011;37611;51.794;21.590;2024-01-15T09:40:05;15.40;;;12.60;;
51525;SDS011;37611;51.794;21.590;2024-01-15T09:44:09;13.70;;;10.00;;
51525;SDS011;37611;51.794;21.590;2024-01-15T09:48:13;13.50;;;9.50;;
51525;SDS011;37611;51.794;21.590;2024-01-15T09:52:15;13.00;;;8.60;;
51525;SDS011;37611;51.794;21.590;2024-01-15T09:56:19;12.20;;;8.60;;
51525;SDS011;37611;51.794;21.590;2024-01-15T10:00:22;13.50;;;8.20;;
51525;SDS011;37611;51.794;21.590;2024-01-15T10:04:24;8.10;;;7.00;;
51525;SDS011;37611;51.794;21.590;2024-01-15T10:08:26;8.50;;;5.80;;
51525;SDS011;37611;51.794;21.590;2024-01-15T10:12:28;9.20;;;6.20;;
51525;SDS011;37611;51.794;21.590;2024-01-15T10:16:30;13.20;;;9.10;;
51525;SDS011;37611;51.794;21.590;2024-01-15T10:20:32;14.10;;;9.10;;
51525;SDS011;37611;51.794;21.590;2024-01-15T10:24:35;13.00;;;8.40;;
51525;SDS011;37611;51.794;21.590;2024-01-15T10:28:38;13.50;;;7.50;;
51525;SDS011;37611;51.794;21.590;2024-01-15T10:32:39;13.70;;;6.80;;
51525;SDS011;37611;51.794;21.590;2024-01-15T10:36:45;12.30;;;7.40;;
51525;SDS011;37611;51.794;21.590;2024-01-15T10:40:52;12.90;;;7.60;;
51525;SDS011;37611;51.794;21.590;2024-01-15T10:44:55;10.80;;;6.70;;
51525;SDS011;37611;51.794;21.590;2024-01-15T10:48:57;11.70;;;6.50;;
51525;SDS011;37611;51.794;21.590;2024-01-15T10:52:59;9.90;;;6.80;;
51525;SDS011;37611;51.794;21.590;2024-01-15T10:57:01;15.20;;;9.40;;
51525;SDS011;37611;51.794;21.590;2024-01-15T11:01:04;12.80;;;7.70;;
51525;SDS011;37611;51.794;21.590;2024-01-15T11:05:06;8.50;;;5.80;;
51525;SDS011;37611;51.794;21.590;2024-01-15T11:09:08;9.60;;;6.50;;
51525;SDS011;37611;51.794;21.590;2024-01-15T11:13:15;21.50;;;10.40;;
51525;SDS011;37611;51.794;21.590;2024-01-15T11:17:21;17.70;;;10.70;;
51525;SDS011;37611;51.794;21.590;2024-01-15T11:21:24;16.90;;;10.30;;
51525;SDS011;37611;51.794;21.590;2024-01-15T11:25:34;25.70;;;15.40;;
51525;SDS011;37611;51.794;21.590;2024-01-15T11:29:38;14.90;;;10.50;;
51525;SDS011;37611;51.794;21.590;2024-01-15T11:33:47;14.00;;;10.40;;
51525;SDS011;37611;51.794;21.590;2024-01-15T11:41:56;14.00;;;10.70;;
51525;SDS011;37611;51.794;21.590;2024-01-15T11:45:59;13.70;;;9.50;;
51525;SDS011;37611;51.794;21.590;2024-01-15T11:50:04;11.50;;;8.80;;
51525;SDS011;37611;51.794;21.590;2024-01-15T11:54:07;11.50;;;6.80;;
51525;SDS011;37611;51.794;21.590;2024-01-15T11:58:13;11.70;;;7.20;;
51525;SDS011;37611;51.794;21.590;2024-01-15T12:02:15;14.70;;;11.90;;
51525;SDS011;37611;51.794;21.590;2024-01-15T12:06:17;13.90;;;10.20;;
51525;SDS011;37611;51.794;21.590;2024-01-15T12:10:20;10.20;;;6.40;;
51525;SDS011;37611;51.794;21.590;2024-01-15T12:14:22;12.50;;;6.90;;
51525;SDS011;37611;51.794;21.590;2024-01-15T12:18:25;9.30;;;5.70;;
51525;SDS011;37611;51.794;21.590;2024-01-15T12:22:27;10.90;;;6.60;;
51525;SDS011;37611;51.794;21.590;2024-01-15T12:26:30;9.90;;;6.10;;
51525;SDS011;37611;51.794;21.590;2024-01-15T12:30:33;9.40;;;5.90;;
51525;SDS011;37611;51.794;21.590;2024-01-15T12:34:35;9.50;;;6.50;;
51525;SDS011;37611;51.794;21.590;2024-01-15T12:38:39;11.20;;;6.30;;
51525;SDS011;37611;51.794;21.590;2024-01-15T12:42:41;9.90;;;6.30;;
51525;SDS011;37611;51.794;21.590;2024-01-15T12:46:43;17.10;;;8.20;;
51525;SDS011;37611;51.794;21.590;2024-01-15T12:50:45;11.30;;;7.50;;
51525;SDS011;37611;51.794;21.590;2024-01-15T12:54:48;10.20;;;5.70;;
51525;SDS011;37611;51.794;21.590;2024-01-15T12:58:50;10.40;;;6.50;;
51525;SDS011;37611;51.794;21.590;2024-01-15T13:02:52;15.90;;;8.10;;
51525;SDS011;37611;51.794;21.590;2024-01-15T13:06:55;11.00;;;7.40;;
51525;SDS011;37611;51.794;21.590;2024-01-15T13:10:57;14.60;;;10.30;;
51525;SDS011;37611;51.794;21.590;2024-01-15T13:14:59;16.20;;;9.90;;
51525;SDS011;37611;51.794;21.590;2024-01-15T13:19:00;14.90;;;9.60;;
51525;SDS011;37611;51.794;21.590;2024-01-15T13:23:02;12.70;;;9.00;;
51525;SDS011;37611;51.794;21.590;2024-01-15T13:27:05;13.00;;;8.50;;
51525;SDS011;37611;51.794;21.590;2024-01-15T13:31:08;16.20;;;9.70;;
51525;SDS011;37611;51.794;21.590;2024-01-15T13:35:10;18.00;;;11.70;;
51525;SDS011;37611;51.794;21.590;2024-01-15T13:39:14;14.50;;;10.10;;
51525;SDS011;37611;51.794;21.590;2024-01-15T13:43:20;14.50;;;8.80;;
51525;SDS011;37611;51.794;21.590;2024-01-15T13:47:21;16.40;;;10.00;;
51525;SDS011;37611;51.794;21.590;2024-01-15T13:51:24;14.20;;;9.50;;
51525;SDS011;37611;51.794;21.590;2024-01-15T13:55:26;12.90;;;8.40;;
51525;SDS011;37611;51.794;21.590;2024-01-15T13:59:28;14.40;;;9.00;;
51525;SDS011;37611;51.794;21.590;2024-01-15T14:03:30;21.70;;;11.90;;
51525;SDS011;37611;51.794;21.590;2024-01-15T14:07:31;14.10;;;8.60;;
51525;SDS011;37611;51.794;21.590;2024-01-15T14:11:34;13.10;;;9.40;;
51525;SDS011;37611;51.794;21.590;2024-01-15T14:15:35;13.90;;;8.50;;
51525;SDS011;37611;51.794;21.590;2024-01-15T14:19:38;17.50;;;12.60;;
51525;SDS011;37611;51.794;21.590;2024-01-15T14:23:39;13.20;;;8.90;;
51525;SDS011;37611;51.794;21.590;2024-01-15T14:27:41;18.50;;;11.50;;
51525;SDS011;37611;51.794;21.590;2024-01-15T14:31:43;14.60;;;9.90;;
51525;SDS011;37611;51.794;21.590;2024-01-15T14:35:45;16.60;;;11.40;;
51525;SDS011;37611;51.794;21.590;2024-01-15T14:39:46;18.00;;;10.60;;
51525;SDS011;37611;51.794;21.590;2024-01-15T14:43:48;17.80;;;12.60;;
51525;SDS011;37611;51.794;21.590;2024-01-15T14:47:50;12.80;;;8.30;;
51525;SDS011;37611;51.794;21.590;2024-01-15T14:51:52;16.00;;;10.50;;
51525;SDS011;37611;51.794;21.590;2024-01-15T14:55:53;19.20;;;13.70;;
51525;SDS011;37611;51.794;21.590;2024-01-15T14:59:56;14.50;;;9.30;;
51525;SDS011;37611;51.794;21.590;2024-01-15T15:03:58;13.90;;;9.60;;
51525;SDS011;37611;51.794;21.590;2024-01-15T15:08:00;18.00;;;10.50;;
51525;SDS011;37611;51.794;21.590;2024-01-15T15:12:02;18.40;;;11.10;;
51525;SDS011;37611;51.794;21.590;2024-01-15T15:16:06;16.60;;;10.00;;
51525;SDS011;37611;51.794;21.590;2024-01-15T15:20:09;14.90;;;8.10;;
51525;SDS011;37611;51.794;21.590;2024-01-15T15:24:11;16.40;;;9.60;;
51525;SDS011;37611;51.794;21.590;2024-01-15T15:28:13;26.60;;;17.40;;
51525;SDS011;37611;51.794;21.590;2024-01-15T15:32:17;18.40;;;10.00;;
51525;SDS011;37611;51.794;21.590;2024-01-15T15:36:19;17.80;;;11.10;;
51525;SDS011;37611;51.794;21.590;2024-01-15T15:45:37;14.30;;;9.00;;
51525;SDS011;37611;51.794;21.590;2024-01-15T15:49:38;11.30;;;8.40;;
51525;SDS011;37611;51.794;21.590;2024-01-15T15:53:40;16.20;;;10.50;;
51525;SDS011;37611;51.794;21.590;2024-01-15T15:57:42;15.20;;;10.00;;
51525;SDS011;37611;51.794;21.590;2024-01-15T16:01:44;19.90;;;10.60;;
51525;SDS011;37611;51.794;21.590;2024-01-15T16:05:47;21.30;;;11.00;;
51525;SDS011;37611;51.794;21.590;2024-01-15T16:09:49;17.10;;;10.10;;
51525;SDS011;37611;51.794;21.590;2024-01-15T16:13:50;16.60;;;8.20;;
51525;SDS011;37611;51.794;21.590;2024-01-15T16:17:52;18.50;;;11.00;;
51525;SDS011;37611;51.794;21.590;2024-01-15T16:21:54;18.40;;;10.40;;
51525;SDS011;37611;51.794;21.590;2024-01-15T16:25:56;18.40;;;11.60;;
51525;SDS011;37611;51.794;21.590;2024-01-15T16:29:58;19.10;;;9.90;;
51525;SDS011;37611;51.794;21.590;2024-01-15T16:34:00;14.70;;;8.90;;
51525;SDS011;37611;51.794;21.590;2024-01-15T16:38:02;23.10;;;12.50;;
51525;SDS011;37611;51.794;21.590;2024-01-15T16:42:04;17.30;;;10.40;;
51525;SDS011;37611;51.794;21.590;2024-01-15T16:46:07;22.30;;;10.70;;
51525;SDS011;37611;51.794;21.590;2024-01-15T16:50:09;18.30;;;11.00;;
51525;SDS011;37611;51.794;21.590;2024-01-15T16:54:12;16.70;;;9.30;;
51525;SDS011;37611;51.794;21.590;2024-01-15T16:58:13;15.30;;;9.30;;
51525;SDS011;37611;51.794;21.590;2024-01-15T17:02:16;16.10;;;8.70;;
51525;SDS011;37611;51.794;21.590;2024-01-15T17:06:18;16.80;;;9.20;;
51525;SDS011;37611;51.794;21.590;2024-01-15T17:10:20;13.30;;;8.60;;
51525;SDS011;37611;51.794;21.590;2024-01-15T17:14:22;16.70;;;9.40;;
51525;SDS011;37611;51.794;21.590;2024-01-15T17:18:24;13.90;;;7.90;;
51525;SDS011;37611;51.794;21.590;2024-01-15T17:22:25;12.90;;;6.90;;
51525;SDS011;37611;51.794;21.590;2024-01-15T17:26:27;13.60;;;8.40;;
51525;SDS011;37611;51.794;21.590;2024-01-15T17:30:29;13.30;;;8.00;;
51525;SDS011;37611;51.794;21.590;2024-01-15T17:34:32;18.10;;;9.10;;
51525;SDS011;37611;51.794;21.590;2024-01-15T17:38:34;13.30;;;8.30;;
51525;SDS011;37611;51.794;21.590;2024-01-15T17:42:35;14.50;;;9.20;;
51525;SDS011;37611;51.794;21.590;2024-01-15T17:46:37;15.20;;;9.20;;
51525;SDS011;37611;51.794;21.590;2024-01-15T17:50:40;13.70;;;7.30;;
51525;SDS011;37611;51.794;21.590;2024-01-15T17:54:41;20.40;;;16.90;;
51525;SDS011;37611;51.794;21.590;2024-01-15T17:58:43;21.30;;;14.80;;
51525;SDS011;37611;51.794;21.590;2024-01-15T18:48:47;13.50;;;8.50;;
51525;SDS011;37611;51.794;21.590;2024-01-15T18:52:50;12.70;;;7.50;;
51525;SDS011;37611;51.794;21.590;2024-01-15T18:56:55;10.40;;;6.20;;
51525;SDS011;37611;51.794;21.590;2024-01-15T19:00:57;16.30;;;9.30;;
51525;SDS011;37611;51.794;21.590;2024-01-15T19:04:59;13.50;;;8.50;;
51525;SDS011;37611;51.794;21.590;2024-01-15T19:09:02;14.40;;;9.20;;
51525;SDS011;37611;51.794;21.590;2024-01-15T22:01:49;10.00;;;6.90;;
51525;SDS011;37611;51.794;21.590;2024-01-15T22:06:52;5.30;;;3.50;;
51525;SDS011;37611;51.794;21.590;2024-01-15T22:10:54;9.40;;;5.80;;
51525;SDS011;37611;51.794;21.590;2024-01-15T22:14:55;10.60;;;7.30;;
51525;SDS011;37611;51.794;21.590;2024-01-15T22:19:00;9.70;;;5.00;;
51525;SDS011;37611;51.794;21.590;2024-01-15T22:23:02;6.90;;;3.10;;
51525;SDS011;37611;51.794;21.590;2024-01-15T22:27:04;7.30;;;3.30;;
51525;SDS011;37611;51.794;21.590;2024-01-15T22:31:06;19.00;;;14.30;;
51525;SDS011;37611;51.794;21.590;2024-01-15T22:35:08;17.10;;;12.40;;
51525;SDS011;37611;51.794;21.590;2024-01-15T22:39:11;9.80;;;7.90;;
51525;SDS011;37611;51.794;21.590;2024-01-15T22:43:15;3.70;;;2.50;;
51525;SDS011;37611;51.794;21.590;2024-01-15T22:47:17;4.40;;;2.30;;
51525;SDS011;37611;51.794;21.590;2024-01-15T22:51:19;7.60;;;3.90;;
51525;SDS011;37611;51.794;21.590;2024-01-15T22:55:21;5.80;;;3.10;;
51525;SDS011;37611;51.794;21.590;2024-01-15T22:59:22;5.60;;;3.00;;
51525;SDS011;37611;51.794;21.590;2024-01-15T23:03:24;7.20;;;4.20;;
51525;SDS011;37611;51.794;21.590;2024-01-15T23:07:26;3.70;;;2.20;;
51525;SDS011;37611;51.794;21.590;2024-01-15T23:11:28;6.10;;;2.30;;
51525;SDS011;37611;51.794;21.590;2024-01-15T23:15:30;4.40;;;1.70;;
51525;SDS011;37611;51.794;21.590;2024-01-15T23:19:32;2.80;;;2.00;;
51525;SDS011;37611;51.794;21.590;2024-01-15T23:23:34;4.00;;;2.20;;
51525;SDS011;37611;51.794;21.590;2024-01-15T23:27:36;5.20;;;3.10;;
51525;SDS011;37611;51.794;21.590;2024-01-15T23:31:39;3.30;;;1.80;;
51525;SDS011;37611;51.794;21.590;2024-01-15T23:35:41;3.40;;;1.50;;
51525;SDS011;37611;51.794;21.590;2024-01-15T23:39:44;1.90;;;1.40;;
51525;SDS011;37611;51.794;21.590;2024-01-15T23:43:47;1.90;;;1.50;;
51525;SDS011;37611;51.794;21.590;2024-01-15T23:47:49;2.90;;;1.50;;
51525;SDS011;37611;51.794;21.590;2024-01-15T23:51:51;2.50;;;2.20;;
51525;SDS011;37611;51.794;21.590;2024-01-15T23:55:54;2.80;;;2.00;;
51525;SDS011;37611;51.794;21.590;2024-01-15T23:59:55;3.30;;;1.50;;
